createdAt,value
2022-10-09T00:02:39.332Z,98635.63
2022-10-09T00:05:45.261Z,98630.75
2022-10-09T00:08:52.550Z,98637.53
2022-10-09T00:12:00.978Z,98637.38
2022-10-09T00:15:09.448Z,98628.78
2022-10-09T00:18:18.519Z,98643.16
2022-10-09T00:21:28.074Z,98647.16
2022-10-09T00:24:33.712Z,98644.72
2022-10-09T00:27:42.044Z,98650.56
2022-10-09T00:30:47.838Z,98652.81
2022-10-09T00:33:54.037Z,98650.94
2022-10-09T00:36:59.918Z,98656.94
2022-10-09T00:40:11.056Z,98659.59
2022-10-09T00:43:40.818Z,98665.34
2022-10-09T00:46:55.296Z,98669.31
2022-10-09T00:50:08.282Z,98666.53
2022-10-09T00:53:22.718Z,98675.66
2022-10-09T00:56:30.610Z,98680.09
2022-10-09T00:59:40.641Z,98682.31
2022-10-09T01:02:47.227Z,98681.53
2022-10-09T01:06:05.832Z,98687.44
2022-10-09T01:09:22.263Z,98686.63
2022-10-09T01:12:44.912Z,98684.31
2022-10-09T01:16:08.376Z,98685.44
2022-10-09T01:19:53.228Z,98689.53
2022-10-09T01:23:46.330Z,98700.38
2022-10-09T01:27:13.820Z,98704.03
2022-10-09T01:30:25.153Z,98711.72
2022-10-09T01:33:34.222Z,98706.59
2022-10-09T01:36:43.416Z,98714.19
2022-10-09T01:39:52.396Z,98714.03
2022-10-09T01:43:09.343Z,98716.91
2022-10-09T01:46:26.373Z,98721.25
2022-10-09T01:49:46.401Z,98721.25
2022-10-09T01:52:57.460Z,98727.25
2022-10-09T01:56:14.727Z,98732.75
2022-10-09T01:59:33.955Z,98737.78
2022-10-09T02:02:43.971Z,98739.81
2022-10-09T02:05:56.322Z,98741.84
2022-10-09T02:09:07.801Z,98753.41
2022-10-09T02:12:18.960Z,98752.19
2022-10-09T02:15:37.986Z,98753.41
2022-10-09T02:18:49.048Z,98763.88
2022-10-09T02:22:08.112Z,98760.75
2022-10-09T02:25:20.021Z,98767.75
2022-10-09T02:28:26.439Z,98769.78
2022-10-09T02:31:41.619Z,98770.13
2022-10-09T02:34:48.279Z,98772.78
2022-10-09T02:37:54.107Z,98780.09
2022-10-09T02:41:02.399Z,98777.44
2022-10-09T02:44:10.872Z,98795.44
2022-10-09T02:47:19.399Z,98782.44
2022-10-09T02:50:25.170Z,98783.13
2022-10-09T02:53:31.217Z,98786.81
2022-10-09T02:56:39.152Z,98787.09
2022-10-09T02:59:45.086Z,98790.63
2022-10-09T03:02:53.873Z,98791.94
2022-10-09T03:06:04.632Z,98795.28
2022-10-09T03:09:10.329Z,98797.28
2022-10-09T03:12:21.358Z,98802.38
2022-10-09T03:15:27.138Z,98802.38
2022-10-09T03:18:35.541Z,98804.91
2022-10-09T03:21:41.407Z,98804.56
2022-10-09T03:24:47.197Z,98810.72
2022-10-09T03:27:53.146Z,98824.22
2022-10-09T03:30:59.444Z,98822.38
2022-10-09T03:34:07.754Z,98823.34
2022-10-09T03:37:13.466Z,98826.00
2022-10-09T03:40:19.468Z,98832.34
2022-10-09T03:43:25.169Z,98830.00
2022-10-09T03:46:31.033Z,98837.63
2022-10-09T03:49:39.450Z,98835.13
2022-10-09T03:52:45.734Z,98841.81
2022-10-09T03:55:51.732Z,98839.28
2022-10-09T03:58:57.688Z,98836.47
2022-10-09T04:02:03.443Z,98841.81
2022-10-09T04:05:12.682Z,98854.63
2022-10-09T04:08:18.949Z,98850.94
2022-10-09T04:11:24.720Z,98852.91
2022-10-09T04:14:30.574Z,98859.06
2022-10-09T04:17:36.480Z,98864.38
2022-10-09T04:20:48.269Z,98856.91
2022-10-09T04:23:54.797Z,98857.09
2022-10-09T04:27:00.462Z,98866.09
2022-10-09T04:30:11.211Z,98865.03
2022-10-09T04:33:17.074Z,98865.00
2022-10-09T04:36:25.699Z,98875.63
2022-10-09T04:39:31.461Z,98872.09
2022-10-09T04:42:37.159Z,98875.09
2022-10-09T04:45:44.617Z,98888.94
2022-10-09T04:48:50.771Z,98884.22
2022-10-09T04:51:59.142Z,98881.53
2022-10-09T04:55:04.949Z,98893.72
2022-10-09T04:58:11.738Z,98897.06
2022-10-09T05:01:22.003Z,98893.56
2022-10-09T05:04:30.815Z,98912.03
2022-10-09T05:07:39.292Z,98901.38
2022-10-09T05:10:45.093Z,98903.69
2022-10-09T05:13:58.273Z,98907.81
2022-10-09T05:17:14.612Z,98914.19
2022-10-09T05:20:20.948Z,98917.63
2022-10-09T05:23:30.409Z,98921.84
2022-10-09T05:26:36.098Z,98926.56
2022-10-09T05:29:44.979Z,98924.72
2022-10-09T05:32:50.878Z,98924.22
2022-10-09T05:36:00.339Z,98927.47
2022-10-09T05:39:08.746Z,98938.34
2022-10-09T05:42:14.703Z,98938.50
2022-10-09T05:45:23.071Z,98941.13
2022-10-09T05:48:28.913Z,98952.09
2022-10-09T05:51:37.911Z,98950.78
2022-10-09T05:54:46.272Z,98956.09
2022-10-09T05:57:52.258Z,98959.28
2022-10-09T06:01:03.593Z,98965.56
2022-10-09T06:04:14.715Z,98953.31
2022-10-09T06:07:20.518Z,98962.03
2022-10-09T06:10:32.264Z,98963.66
2022-10-09T06:13:38.314Z,98964.09
2022-10-09T06:16:46.971Z,98977.41
2022-10-09T06:19:52.757Z,98976.44
2022-10-09T06:22:58.564Z,98983.41
2022-10-09T06:26:09.768Z,98973.97
2022-10-09T06:29:15.392Z,98990.84
2022-10-09T06:32:20.966Z,98987.69
2022-10-09T06:35:26.789Z,98998.13
2022-10-09T06:38:33.183Z,98993.75
2022-10-09T06:41:41.476Z,98998.59
2022-10-09T06:45:02.601Z,99004.94
2022-10-09T06:48:08.570Z,99007.09
2022-10-09T06:51:17.509Z,99007.38
2022-10-09T06:54:23.150Z,99014.28
2022-10-09T06:57:31.429Z,99017.16
2022-10-09T07:00:37.054Z,99018.94
2022-10-09T07:03:45.692Z,99021.09
2022-10-09T07:06:51.327Z,99031.47
2022-10-09T07:09:57.032Z,99039.47
2022-10-09T07:13:05.348Z,99040.41
2022-10-09T07:16:12.836Z,99031.41
2022-10-09T07:19:21.977Z,99044.78
2022-10-09T07:22:27.693Z,99043.66
2022-10-09T07:25:33.305Z,99058.66
2022-10-09T07:28:42.517Z,99060.00
2022-10-09T07:31:48.485Z,99066.84
2022-10-09T07:34:54.119Z,99063.84
2022-10-09T07:37:59.763Z,99062.19
2022-10-09T07:41:08.078Z,99064.88
2022-10-09T07:44:16.405Z,99067.16
2022-10-09T07:47:22.019Z,99059.16
2022-10-09T07:50:31.137Z,99069.06
2022-10-09T07:53:36.786Z,99069.06
2022-10-09T07:56:43.146Z,99068.66
2022-10-09T07:59:51.326Z,99066.13
2022-10-09T08:02:56.903Z,99062.38
2022-10-09T08:06:02.932Z,99073.78
2022-10-09T08:09:11.078Z,99074.41
2022-10-09T08:12:16.982Z,99075.91
2022-10-09T08:15:33.369Z,99082.03
2022-10-09T08:18:42.282Z,99075.59
2022-10-09T08:21:47.859Z,99077.84
2022-10-09T08:24:53.517Z,99078.28
2022-10-09T08:27:59.465Z,99080.56
2022-10-09T08:31:14.560Z,99079.22
2022-10-09T08:34:20.557Z,99078.94
2022-10-09T08:37:26.148Z,99084.88
2022-10-09T08:40:48.103Z,99095.84
2022-10-09T08:44:05.090Z,99093.25
2022-10-09T08:47:30.082Z,99089.16
2022-10-09T08:50:41.326Z,99079.78
2022-10-09T08:54:08.373Z,99089.81
2022-10-09T08:57:18.649Z,99091.00
2022-10-09T09:00:27.301Z,99094.47
2022-10-09T09:04:08.227Z,99090.63
2022-10-09T09:07:30.944Z,99099.66
2022-10-09T09:10:54.635Z,99090.53
2022-10-09T09:14:22.952Z,99094.03
2022-10-09T09:17:48.244Z,99091.16
2022-10-09T09:21:05.879Z,99084.78
2022-10-09T09:24:20.504Z,99090.06
2022-10-09T09:27:34.436Z,99078.69
2022-10-09T09:30:55.626Z,99079.72
2022-10-09T09:34:16.865Z,99076.22
2022-10-09T09:37:26.409Z,99081.63
2022-10-09T09:40:38.554Z,99072.94
2022-10-09T09:43:45.470Z,99085.34
2022-10-09T09:46:52.459Z,99080.16
2022-10-09T09:50:28.553Z,99076.78
2022-10-09T09:53:46.423Z,99076.72
2022-10-09T09:57:18.166Z,99080.09
2022-10-09T10:00:27.043Z,99076.19
2022-10-09T10:03:42.687Z,99084.50
2022-10-09T10:06:48.475Z,99086.66
2022-10-09T10:10:14.863Z,99085.03
2022-10-09T10:13:29.667Z,99090.41
2022-10-09T10:16:41.536Z,99074.41
2022-10-09T10:19:54.139Z,99079.66
2022-10-09T10:23:02.949Z,99080.53
2022-10-09T10:26:37.500Z,99082.97
2022-10-09T10:29:49.842Z,99074.69
2022-10-09T10:33:06.834Z,99073.59
2022-10-09T10:36:14.795Z,99076.09
2022-10-09T10:39:34.703Z,99077.88
2022-10-09T10:42:59.220Z,99075.09
2022-10-09T10:46:18.521Z,99077.81
2022-10-09T10:49:28.390Z,99073.13
2022-10-09T10:53:18.559Z,99070.88
2022-10-09T10:56:34.426Z,99068.41
2022-10-09T11:00:00.559Z,99070.09
2022-10-09T11:03:40.161Z,99064.00
2022-10-09T11:07:03.071Z,99073.16
2022-10-09T11:10:25.690Z,99075.69
2022-10-09T11:13:39.545Z,99072.41
2022-10-09T11:17:11.160Z,99064.41
2022-10-09T11:20:59.930Z,99073.72
2022-10-09T11:24:37.003Z,99069.53
2022-10-09T11:27:55.650Z,99055.81
2022-10-09T11:31:14.229Z,99065.53
2022-10-09T11:34:33.965Z,99068.56
2022-10-09T11:37:47.123Z,99055.03
2022-10-09T11:40:53.749Z,99060.44
2022-10-09T11:44:36.297Z,99060.41
2022-10-09T11:47:54.431Z,99052.81
2022-10-09T11:51:15.646Z,99050.19
2022-10-09T11:54:27.772Z,99048.16
2022-10-09T11:57:35.342Z,99050.47
2022-10-09T12:00:41.345Z,99057.19
2022-10-09T12:03:47.441Z,99050.06
2022-10-09T12:07:00.555Z,99044.53
2022-10-09T12:10:23.218Z,99040.25
2022-10-09T12:13:54.845Z,99035.16
2022-10-09T12:17:02.577Z,99031.66
2022-10-09T12:20:20.262Z,99035.47
2022-10-09T12:23:38.054Z,99033.78
2022-10-09T12:26:44.755Z,99037.94
2022-10-09T12:29:58.425Z,99033.88
2022-10-09T12:33:24.168Z,99044.69
2022-10-09T12:36:34.357Z,99043.03
2022-10-09T12:39:43.118Z,99041.59
2022-10-09T12:42:51.965Z,99038.97
2022-10-09T12:45:58.643Z,99032.59
2022-10-09T12:49:09.138Z,99037.44
2022-10-09T12:52:19.274Z,99031.09
2022-10-09T12:55:32.533Z,99027.66
2022-10-09T12:58:42.152Z,99030.09
2022-10-09T13:01:50.818Z,99028.28
2022-10-09T13:05:03.712Z,99016.88
2022-10-09T13:08:26.885Z,99023.59
2022-10-09T13:11:40.670Z,99027.78
2022-10-09T13:14:55.496Z,99028.31
2022-10-09T13:18:01.785Z,99031.34
2022-10-09T13:21:24.926Z,99024.22
2022-10-09T13:24:30.732Z,99017.84
2022-10-09T13:27:43.545Z,99013.53
2022-10-09T13:30:49.356Z,99002.94
2022-10-09T13:33:55.200Z,99011.81
2022-10-09T13:37:00.878Z,99006.84
2022-10-09T13:40:08.898Z,99002.03
2022-10-09T13:43:26.805Z,99004.25
2022-10-09T13:46:32.386Z,98996.44
2022-10-09T13:49:37.997Z,98995.19
2022-10-09T13:52:43.543Z,99005.47
2022-10-09T13:55:58.459Z,99003.09
2022-10-09T13:59:09.298Z,98999.38
2022-10-09T14:02:15.218Z,98995.06
2022-10-09T14:05:21.783Z,98994.97
2022-10-09T14:08:27.346Z,98981.94
2022-10-09T14:11:34.008Z,98984.75
2022-10-09T14:14:42.227Z,98982.28
2022-10-09T14:17:48.228Z,98985.06
2022-10-09T14:20:54.186Z,98978.22
2022-10-09T14:24:02.864Z,98973.75
2022-10-09T14:27:08.981Z,98978.88
2022-10-09T14:30:18.764Z,98985.88
2022-10-09T14:33:24.381Z,98976.31
2022-10-09T14:36:31.861Z,98976.16
2022-10-09T14:39:37.454Z,98970.50
2022-10-09T14:42:43.878Z,98972.94
2022-10-09T14:45:52.138Z,98974.22
2022-10-09T14:49:00.169Z,98967.28
2022-10-09T14:52:09.818Z,98967.47
2022-10-09T14:55:15.557Z,98962.41
2022-10-09T14:58:21.266Z,98967.94
2022-10-09T15:01:33.106Z,98961.47
2022-10-09T15:04:38.930Z,98957.22
2022-10-09T15:07:44.645Z,98952.47
2022-10-09T15:10:52.966Z,98946.81
2022-10-09T15:13:59.331Z,98947.91
2022-10-09T15:17:07.982Z,98942.34
2022-10-09T15:20:13.724Z,98946.94
2022-10-09T15:23:24.176Z,98948.63
2022-10-09T15:26:36.485Z,98942.34
2022-10-09T15:29:42.404Z,98943.34
2022-10-09T15:32:50.671Z,98944.56
2022-10-09T15:35:57.038Z,98945.22
2022-10-09T15:39:06.079Z,98945.75
2022-10-09T15:42:11.867Z,98942.78
2022-10-09T15:45:17.862Z,98941.59
2022-10-09T15:48:28.065Z,98936.03
2022-10-09T15:51:47.383Z,98941.56
2022-10-09T15:54:56.320Z,98951.84
2022-10-09T15:58:05.001Z,98947.47
2022-10-09T16:01:14.366Z,98942.38
2022-10-09T16:04:22.586Z,98950.16
2022-10-09T16:07:28.276Z,98948.22
2022-10-09T16:10:58.798Z,98951.47
2022-10-09T16:14:09.604Z,98944.13
2022-10-09T16:17:15.191Z,98947.56
2022-10-09T16:20:23.760Z,98955.13
2022-10-09T16:23:29.573Z,98959.38
2022-10-09T16:26:35.272Z,98963.28
2022-10-09T16:29:47.619Z,98962.00
2022-10-09T16:32:59.292Z,98962.72
2022-10-09T16:36:16.408Z,98966.38
2022-10-09T16:39:23.784Z,98960.75
2022-10-09T16:42:29.599Z,98965.44
2022-10-09T16:45:35.409Z,98962.13
2022-10-09T16:48:47.645Z,98962.09
2022-10-09T16:51:57.240Z,98965.28
2022-10-09T16:55:02.955Z,98964.91
2022-10-09T16:58:08.650Z,98972.25
2022-10-09T17:01:16.482Z,98966.88
2022-10-09T17:04:22.243Z,98954.69
2022-10-09T17:07:30.650Z,98967.66
2022-10-09T17:10:39.180Z,98970.56
2022-10-09T17:13:45.499Z,98962.56
2022-10-09T17:16:52.436Z,98971.69
2022-10-09T17:19:58.221Z,98969.44
2022-10-09T17:23:07.288Z,98961.38
2022-10-09T17:26:17.369Z,98974.34
2022-10-09T17:29:24.131Z,98981.13
2022-10-09T17:32:29.879Z,98977.59
2022-10-09T17:35:35.786Z,98970.78
2022-10-09T17:38:43.989Z,98981.38
2022-10-09T17:41:51.458Z,98971.75
2022-10-09T17:44:57.152Z,98981.84
2022-10-09T17:48:08.250Z,98981.63
2022-10-09T17:51:20.153Z,98984.50
2022-10-09T17:54:28.382Z,98982.91
2022-10-09T17:57:33.940Z,98988.84
2022-10-09T18:00:40.654Z,98982.25
2022-10-09T18:03:47.816Z,98982.25
2022-10-09T18:06:55.692Z,98980.22
2022-10-09T18:10:03.986Z,98986.78
2022-10-09T18:13:16.152Z,98986.25
2022-10-09T18:16:35.299Z,98984.78
2022-10-09T18:19:41.618Z,98981.59
2022-10-09T18:22:47.242Z,98988.63
2022-10-09T18:25:55.437Z,98991.97
2022-10-09T18:29:02.296Z,99000.53
2022-10-09T18:32:08.697Z,98998.75
2022-10-09T18:35:14.284Z,99000.59
2022-10-09T18:38:19.984Z,98999.34
2022-10-09T18:41:28.181Z,98994.03
2022-10-09T18:44:41.598Z,99000.50
2022-10-09T18:47:50.290Z,99003.75
2022-10-09T18:50:56.151Z,99003.88
2022-10-09T18:54:13.279Z,99006.00
2022-10-09T18:57:29.118Z,99007.66
2022-10-09T19:00:37.226Z,98998.44
2022-10-09T19:03:46.026Z,99008.97
2022-10-09T19:06:57.279Z,99008.56
2022-10-09T19:10:03.659Z,99000.19
2022-10-09T19:13:12.210Z,99006.72
2022-10-09T19:16:17.870Z,98998.94
2022-10-09T19:19:23.684Z,98998.94
2022-10-09T19:22:34.492Z,98999.44
2022-10-09T19:25:40.125Z,98994.97
2022-10-09T19:28:48.972Z,98998.72
2022-10-09T19:31:55.430Z,98998.19
2022-10-09T19:35:01.053Z,99000.09
2022-10-09T19:38:06.706Z,99010.03
2022-10-09T19:41:15.563Z,98999.31
2022-10-09T19:44:24.028Z,99010.91
2022-10-09T19:47:29.983Z,99008.56
2022-10-09T19:50:36.795Z,99005.38
2022-10-09T19:53:43.659Z,99001.47
2022-10-09T19:56:49.456Z,99004.81
2022-10-09T19:59:57.756Z,99008.06
2022-10-09T20:03:07.792Z,99008.34
2022-10-09T20:06:16.215Z,99002.34
2022-10-09T20:09:21.933Z,99010.31
2022-10-09T20:12:28.025Z,99015.88
2022-10-09T20:15:36.295Z,99022.63
2022-10-09T20:18:43.584Z,99020.06
2022-10-09T20:21:51.413Z,99017.31
2022-10-09T20:24:57.208Z,99010.88
2022-10-09T20:28:02.758Z,99015.81
2022-10-09T20:31:16.540Z,99005.38
2022-10-09T20:34:29.496Z,99010.41
2022-10-09T20:37:35.145Z,99006.00
2022-10-09T20:40:42.988Z,99000.41
2022-10-09T20:43:54.784Z,99008.25
2022-10-09T20:47:03.276Z,99003.66
2022-10-09T20:50:11.917Z,99007.00
2022-10-09T20:53:20.177Z,99001.72
2022-10-09T20:56:28.057Z,99000.47
2022-10-09T20:59:33.648Z,98996.16
2022-10-09T21:02:45.788Z,98996.88
2022-10-09T21:05:51.383Z,98988.50
2022-10-09T21:08:56.964Z,98992.41
2022-10-09T21:12:02.808Z,98995.75
2022-10-09T21:15:10.734Z,98987.75
2022-10-09T21:18:25.314Z,98986.78
2022-10-09T21:21:32.822Z,98985.16
2022-10-09T21:24:38.492Z,98988.50
2022-10-09T21:27:44.115Z,98993.41
2022-10-09T21:30:57.374Z,98989.88
2022-10-09T21:34:08.043Z,98994.34
2022-10-09T21:37:21.464Z,98986.66
2022-10-09T21:40:27.964Z,98979.41
2022-10-09T21:43:33.935Z,98979.69
2022-10-09T21:46:41.995Z,98978.16
2022-10-09T21:49:50.527Z,98967.56
2022-10-09T21:52:56.410Z,98960.47
2022-10-09T21:56:02.135Z,98981.38
2022-10-09T21:59:08.709Z,98976.50
2022-10-09T22:02:14.403Z,98972.72
2022-10-09T22:05:22.727Z,98974.53
2022-10-09T22:08:29.348Z,98970.34
2022-10-09T22:11:35.018Z,98975.22
2022-10-09T22:14:40.769Z,98978.25
2022-10-09T22:17:46.417Z,98980.19
2022-10-09T22:20:55.573Z,98970.03
2022-10-09T22:24:02.989Z,98970.28
2022-10-09T22:27:18.117Z,98961.94
2022-10-09T22:30:23.783Z,98962.47
2022-10-09T22:33:29.471Z,98963.06
2022-10-09T22:36:37.803Z,98962.19
2022-10-09T22:39:43.469Z,98961.38
2022-10-09T22:42:49.571Z,98955.50
2022-10-09T22:45:55.312Z,98961.09
2022-10-09T22:49:03.802Z,98961.25
2022-10-09T22:52:11.967Z,98951.88
2022-10-09T22:55:17.894Z,98943.00
2022-10-09T22:58:23.481Z,98948.13
2022-10-09T23:01:35.353Z,98939.22
2022-10-09T23:04:41.047Z,98940.06
2022-10-09T23:07:50.087Z,98932.53
2022-10-09T23:10:55.649Z,98932.09
2022-10-09T23:14:03.167Z,98938.25
2022-10-09T23:17:08.762Z,98925.56
2022-10-09T23:20:14.550Z,98932.81
2022-10-09T23:23:22.791Z,98935.19
2022-10-09T23:26:35.255Z,98935.47
2022-10-09T23:29:41.889Z,98940.19
2022-10-09T23:32:47.549Z,98932.81
2022-10-09T23:35:53.283Z,98924.16
2022-10-09T23:39:03.818Z,98926.66
2022-10-09T23:42:09.468Z,98926.38
2022-10-09T23:45:15.175Z,98919.53
2022-10-09T23:48:21.056Z,98913.22
2022-10-09T23:51:28.797Z,98912.53
2022-10-09T23:54:36.947Z,98916.69
2022-10-09T23:57:42.574Z,98915.16
